Time;durP1;ratioP1;P1;durP2;ratioP2;P2;SDS_P1;SDS_P2;PMS_P1;PMS_P2;Temp;Humidity;BMP_temperature;BMP_pressure;BME280_temperature;BME280_humidity;BME280_pressure;Samples;Min_cycle;Max_cycle;Signal;HPM_P1;HPM_P2
2022/11/02 00:00:55;;;;;;;17.07;9.33;;;;;;;8.93;54.22;100493.84;1706525;83;21201;-76
2022/11/02 00:04:02;;;;;;;27.45;10.90;;;;;;;9.05;53.93;100493.59;1709150;83;21161;-77
2022/11/02 00:07:07;;;;;;;24.47;11.55;;;;;;;9.04;54.04;100500.06;1710324;83;21173;-76
2022/11/02 00:10:14;;;;;;;25.20;9.93;;;;;;;9.28;53.13;100487.05;1694174;83;21219;-77
2022/11/02 00:13:20;;;;;;;21.05;10.15;;;;;;;8.97;53.80;100487.56;1704633;83;21248;-77
2022/11/02 00:16:27;;;;;;;20.02;9.53;;;;;;;8.95;53.99;100484.16;1708058;84;21189;-76
2022/11/02 00:19:33;;;;;;;27.17;10.68;;;;;;;8.83;54.30;100485.43;1710774;83;21783;-77
2022/11/02 00:22:32;;;;;;;21.23;10.90;;;;;;;8.62;54.86;100485.30;1712739;83;21201;-76
2022/11/02 00:25:39;;;;;;;30.50;10.10;;;;;;;8.78;54.61;100487.27;1709127;83;21201;-76
2022/11/02 00:28:45;;;;;;;26.73;10.72;;;;;;;8.66;54.95;100492.66;1708127;83;21209;-76
2022/11/02 00:31:52;;;;;;;22.82;8.58;;;;;;;8.62;55.01;100486.67;1709637;84;21197;-76
2022/11/02 00:34:58;;;;;;;18.80;9.15;;;;;;;8.43;55.44;100484.14;1708183;83;21736;-76
2022/11/02 00:38:04;;;;;;;21.52;10.20;;;;;;;8.47;55.47;100483.29;1711982;83;21165;-76
2022/11/02 00:41:11;;;;;;;19.20;11.33;;;;;;;8.43;55.50;100476.81;1713299;83;21227;-77
2022/11/02 00:44:16;;;;;;;21.17;10.78;;;;;;;8.51;55.17;100476.51;1707043;83;21275;-76
2022/11/02 00:47:22;;;;;;;22.27;10.20;;;;;;;8.33;55.69;100469.20;1706440;84;21240;-76
2022/11/02 00:50:27;;;;;;;19.85;10.18;;;;;;;8.23;56.03;100464.84;1705367;84;21252;-76
2022/11/02 00:53:34;;;;;;;24.35;9.55;;;;;;;8.28;56.02;100463.86;1706652;83;21240;-77
2022/11/02 00:56:39;;;;;;;21.00;9.63;;;;;;;8.02;56.67;100465.17;1702889;84;21232;-76
2022/11/02 00:59:46;;;;;;;24.65;9.88;;;;;;;7.90;57.14;100455.00;1703380;84;21748;-76
2022/11/02 01:02:53;;;;;;;19.48;10.18;;;;;;;7.86;57.15;100450.40;1703786;84;21181;-75
2022/11/02 01:05:58;;;;;;;17.37;9.43;;;;;;;7.74;57.58;100454.35;1703676;84;21304;-76
2022/11/02 01:08:57;;;;;;;16.42;9.23;;;;;;;7.63;57.91;100460.03;1702443;84;21239;-76
2022/11/02 01:12:04;;;;;;;17.85;9.63;;;;;;;7.72;57.78;100468.64;1702877;84;21232;-77
2022/11/02 01:15:10;;;;;;;22.05;9.60;;;;;;;7.63;58.07;100460.03;1703776;84;21182;-76
2022/11/02 01:18:17;;;;;;;19.02;10.40;;;;;;;7.69;57.84;100471.66;1703728;84;21200;-77
2022/11/02 01:21:23;;;;;;;21.73;11.33;;;;;;;7.57;57.90;100461.98;1702518;84;21347;-76
2022/11/02 01:24:30;;;;;;;21.45;11.10;;;;;;;7.57;58.11;100466.92;1703698;84;21783;-76
2022/11/02 01:27:35;;;;;;;21.37;10.85;;;;;;;7.42;58.51;100470.66;1703410;84;21335;-76
2022/11/02 01:30:41;;;;;;;26.62;10.55;;;;;;;7.52;58.49;100471.11;1703016;84;21203;-76
2022/11/02 01:33:52;;;;;;;21.50;10.98;;;;;;;7.50;58.45;100474.51;1703624;84;21245;-76
2022/11/02 01:36:58;;;;;;;19.55;10.23;;;;;;;7.44;58.62;100480.06;1702339;84;21193;-77
2022/11/02 01:40:04;;;;;;;24.20;10.75;;;;;;;7.49;58.66;100483.18;1703503;84;21228;-77
2022/11/02 01:43:34;;;;;;;20.88;10.23;;;;;;;7.57;58.35;100486.48;1703699;84;21232;-76
2022/11/02 01:46:51;;;;;;;23.70;9.43;;;;;;;7.59;58.29;100489.92;1710958;83;21237;-76
2022/11/02 01:50:04;;;;;;;20.92;9.75;;;;;;;7.56;58.20;100481.55;1708470;83;21269;-77
2022/11/02 01:53:11;;;;;;;17.60;9.43;;;;;;;7.71;58.20;100481.88;1709911;83;21808;-77
2022/11/02 01:56:11;;;;;;;18.92;9.43;;;;;;;7.63;58.31;100479.94;1710668;83;22483;-76
2022/11/02 01:59:23;;;;;;;16.67;9.05;;;;;;;7.60;58.24;100467.98;1711935;83;21197;-76
2022/11/02 02:02:31;;;;;;;22.27;10.08;;;;;;;7.63;58.40;100462.75;1711759;83;21200;-76
2022/11/02 02:05:36;;;;;;;15.95;9.10;;;;;;;7.55;58.29;100466.23;1712990;83;21205;-76
2022/11/02 02:08:44;;;;;;;19.90;9.50;;;;;;;7.32;59.11;100463.06;1711409;83;21184;-76
2022/11/02 02:11:52;;;;;;;19.80;9.08;;;;;;;7.24;59.25;100471.13;1706942;83;21269;-76
2022/11/02 02:14:58;;;;;;;21.80;9.98;;;;;;;7.21;59.33;100459.20;1707055;83;21236;-77
2022/11/02 02:18:12;;;;;;;16.90;10.08;;;;;;;7.27;59.04;100450.42;1716704;83;21233;-77
2022/11/02 02:21:49;;;;;;;18.92;9.90;;;;;;;7.38;58.75;100470.61;1705374;83;21284;-76
2022/11/02 02:25:34;;;;;;;17.65;9.95;;;;;;;7.31;59.03;100460.00;1709012;83;21193;-76
2022/11/02 02:28:55;;;;;;;20.85;9.95;;;;;;;7.00;60.01;100468.09;1710943;83;21181;-76
2022/11/02 02:32:09;;;;;;;21.70;9.70;;;;;;;6.83;60.91;100462.44;1709578;83;21208;-77
2022/11/02 02:35:55;;;;;;;17.35;9.20;;;;;;;6.80;61.03;100466.80;1707963;83;21749;-77
2022/11/02 02:39:17;;;;;;;16.97;10.18;;;;;;;6.80;60.98;100474.11;1710980;83;21176;-77
2022/11/02 02:42:27;;;;;;;23.60;11.28;;;;;;;6.72;61.33;100476.70;1710848;83;21276;-76
2022/11/02 02:45:48;;;;;;;17.70;10.13;;;;;;;6.76;61.13;100470.82;1710326;83;21213;-76
2022/11/02 02:48:53;;;;;;;20.95;8.83;;;;;;;7.40;59.34;100457.73;1712057;83;21209;-76
2022/11/02 02:52:00;;;;;;;21.33;11.22;;;;;;;7.24;59.37;100434.39;1710348;83;21197;-76
2022/11/02 02:55:06;;;;;;;22.25;11.45;;;;;;;7.21;59.53;100437.94;1712524;83;21197;-76
2022/11/02 02:58:14;;;;;;;23.95;11.15;;;;;;;7.30;59.14;100435.16;1712019;83;21225;-76
2022/11/02 03:01:21;;;;;;;22.37;10.20;;;;;;;7.00;60.10;100427.30;1711653;83;21233;-76
2022/11/02 03:04:26;;;;;;;22.20;10.60;;;;;;;7.35;59.01;100424.68;1706402;84;21228;-76
2022/11/02 03:07:36;;;;;;;22.00;10.48;;;;;;;7.00;60.06;100419.14;1709816;83;21191;-76
2022/11/02 03:10:46;;;;;;;20.45;9.93;;;;;;;7.16;59.58;100422.08;1697818;83;21236;-76
2022/11/02 03:14:04;;;;;;;15.75;8.68;;;;;;;7.07;59.73;100420.26;1715251;82;21804;-76
2022/11/02 03:17:27;;;;;;;14.18;8.43;;;;;;;7.27;59.28;100416.92;1705715;84;21273;-76
2022/11/02 03:20:52;;;;;;;18.40;8.70;;;;;;;7.28;59.37;100416.76;1712937;83;21197;-76
2022/11/02 03:24:14;;;;;;;18.52;8.58;;;;;;;7.28;59.31;100412.67;1707544;84;21236;-76
2022/11/02 03:27:39;;;;;;;22.35;9.50;;;;;;;7.18;59.66;100412.73;1709825;84;21185;-76
2022/11/02 03:31:05;;;;;;;16.73;8.10;;;;;;;7.42;58.77;100412.66;1711235;84;21201;-77
2022/11/02 03:34:37;;;;;;;16.95;7.80;;;;;;;7.35;58.94;100407.50;1709907;83;21284;-77
2022/11/02 03:37:49;;;;;;;22.48;10.98;;;;;;;7.36;58.88;100401.89;1697388;83;21581;-77
2022/11/02 03:40:56;;;;;;;29.50;12.05;;;;;;;7.42;58.61;100393.61;1711875;83;21169;-76
2022/11/02 03:44:17;;;;;;;19.73;10.82;;;;;;;7.64;58.02;100392.31;1712471;83;21240;-76
2022/11/02 03:47:24;;;;;;;22.35;9.60;;;;;;;7.58;58.07;100389.71;1710707;83;21933;-78
2022/11/02 03:50:33;;;;;;;27.00;11.12;;;;;;;7.54;58.48;100391.03;1718963;83;21181;-76
2022/11/02 03:54:13;;;;;;;23.10;12.23;;;;;;;7.30;58.55;100379.39;1710238;83;21189;-77
2022/11/02 03:57:23;;;;;;;29.25;12.20;;;;;;;7.64;58.03;100390.44;1711862;83;21193;-76
2022/11/02 04:00:30;;;;;;;27.32;12.20;;;;;;;7.55;58.08;100385.92;1724254;83;21228;-77
2022/11/02 04:03:36;;;;;;;22.40;12.20;;;;;;;7.84;57.72;100381.59;1717252;83;21228;-76
2022/11/02 04:06:30;;;;;;;24.82;12.10;;;;;;;7.97;57.58;100374.91;1712282;83;21189;-77
2022/11/02 04:09:35;;;;;;;18.70;10.88;;;;;;;7.94;57.53;100370.61;1709574;83;21225;-76
2022/11/02 04:16:06;;;;;;;22.40;10.23;;;;;;;8.00;57.77;100363.67;1713096;83;21174;-76
2022/11/02 04:19:28;;;;;;;25.40;9.95;;;;;;;7.91;58.04;100355.46;1699534;83;21291;-77
2022/11/02 04:26:02;;;;;;;22.62;10.72;;;;;;;8.14;57.84;100350.87;1710653;83;21488;-76
2022/11/02 04:29:08;;;;;;;;;;;;;;;8.29;57.51;100341.59;1713286;83;21260;-77
2022/11/02 04:33:31;;;;;;;27.37;9.58;;;;;;;8.22;57.63;100361.80;1710703;83;20723;-77
2022/11/02 04:35:23;;;;;;;22.95;9.98;;;;;;;8.39;57.09;100363.66;1694851;83;21228;-77
2022/11/02 04:38:42;;;;;;;20.70;10.38;;;;;;;8.42;56.97;100364.72;1708741;83;21197;-77
2022/11/02 04:41:52;;;;;;;18.75;10.08;;;;;;;8.58;56.54;100364.45;1709360;83;21475;-78
2022/11/02 04:45:02;;;;;;;20.67;9.20;;;;;;;8.62;56.32;100357.15;1712248;83;21188;-77
2022/11/02 04:48:12;;;;;;;23.25;9.58;;;;;;;8.67;56.31;100355.30;1711667;82;21371;-77
2022/11/02 04:51:23;;;;;;;20.00;10.93;;;;;;;9.20;54.82;100363.68;1700249;84;21189;-77
2022/11/02 04:54:27;;;;;;;23.22;10.18;;;;;;;9.32;54.44;100366.45;1729620;83;21771;-77
2022/11/02 04:57:33;;;;;;;22.77;10.45;;;;;;;9.09;55.24;100364.00;1699303;84;21193;-77
2022/11/02 05:00:39;;;;;;;39.40;13.53;;;;;;;9.12;55.16;100372.69;1729791;83;21193;-77
2022/11/02 05:03:47;;;;;;;18.05;10.25;;;;;;;8.98;55.49;100369.73;1701198;84;21201;-77
2022/11/02 05:06:55;;;;;;;21.95;10.80;;;;;;;9.13;55.38;100362.66;1718076;83;21749;-77
2022/11/02 05:10:02;;;;;;;25.90;10.65;;;;;;;8.93;56.04;100365.63;1730751;83;21875;-78
2022/11/02 05:13:09;;;;;;;19.05;9.30;;;;;;;8.88;56.35;100362.53;1711190;83;21197;-78
2022/11/02 05:16:18;;;;;;;17.75;9.45;;;;;;;8.92;56.54;100363.92;1725265;83;21798;-78
2022/11/02 05:19:18;;;;;;;19.80;10.58;;;;;;;9.00;56.81;100360.89;1719611;83;21193;-78
2022/11/02 05:22:17;;;;;;;21.57;9.93;;;;;;;9.15;56.56;100359.23;1717569;83;21188;-78
2022/11/02 05:25:22;;;;;;;17.30;10.50;;;;;;;9.25;56.37;100358.58;1731489;83;21824;-78
2022/11/02 05:28:27;;;;;;;25.00;11.25;;;;;;;9.39;56.06;100352.47;1714359;83;21200;-78
2022/11/02 05:31:34;;;;;;;21.40;8.83;;;;;;;9.35;56.23;100346.99;1726376;83;21566;-77
2022/11/02 05:34:40;;;;;;;23.45;9.78;;;;;;;9.37;56.98;100338.14;1730242;83;21796;-77
2022/11/02 05:37:46;;;;;;;19.70;9.95;;;;;;;9.54;56.77;100349.08;1731507;83;21243;-77
2022/11/02 05:41:03;;;;;;;25.70;11.07;;;;;;;9.72;56.80;100359.34;1717616;83;21248;-77
2022/11/02 05:44:09;;;;;;;18.85;9.78;;;;;;;9.93;56.94;100356.97;1719003;83;21940;-77
2022/11/02 05:47:15;;;;;;;16.10;8.10;;;;;;;10.11;56.41;100351.81;1712316;83;21169;-77
2022/11/02 05:50:22;;;;;;;20.02;8.48;;;;;;;10.20;56.28;100350.78;1716455;82;21276;-77
2022/11/02 05:53:22;;;;;;;20.05;9.58;;;;;;;10.27;56.23;100345.52;1706248;84;21205;-77
2022/11/02 05:56:27;;;;;;;21.15;9.03;;;;;;;10.33;55.91;100337.47;1705586;84;21229;-77
2022/11/02 05:59:33;;;;;;;20.10;8.60;;;;;;;10.36;55.73;100343.97;1706402;84;21522;-77
2022/11/02 06:02:41;;;;;;;17.40;9.10;;;;;;;10.33;55.45;100348.41;1706135;84;21178;-77
2022/11/02 06:05:47;;;;;;;21.27;8.70;;;;;;;10.46;55.39;100335.56;1690712;84;21225;-79
2022/11/02 06:08:54;;;;;;;23.32;8.43;;;;;;;10.45;55.39;100338.82;1700754;83;21232;-77
2022/11/02 06:12:03;;;;;;;21.02;9.63;;;;;;;10.59;55.10;100342.72;1695198;82;21269;-77
2022/11/02 06:15:10;;;;;;;16.85;9.28;;;;;;;10.57;55.27;100332.97;1706985;82;21339;-77
2022/11/02 06:18:17;;;;;;;15.90;8.25;;;;;;;10.69;55.32;100331.05;1699838;82;21220;-78
2022/11/02 06:21:24;;;;;;;18.80;7.85;;;;;;;10.76;55.45;100327.08;1694787;82;21204;-78
2022/11/02 06:24:29;;;;;;;19.23;9.25;;;;;;;10.87;55.43;100323.97;1699888;82;21228;-78
2022/11/02 06:27:37;;;;;;;17.52;8.68;;;;;;;11.06;55.26;100323.20;1694702;82;21855;-77
2022/11/02 06:30:44;;;;;;;14.40;7.17;;;;;;;11.06;55.48;100323.20;1689402;82;21164;-77
2022/11/02 06:33:51;;;;;;;17.67;7.67;;;;;;;11.05;55.85;100308.63;1702844;82;22249;-79
2022/11/02 06:36:57;;;;;;;17.65;8.60;;;;;;;11.26;55.49;100312.97;1700819;82;21181;-78
2022/11/02 06:40:03;;;;;;;18.42;8.78;;;;;;;11.10;56.05;100317.67;1731923;82;21856;-78
2022/11/02 06:43:08;;;;;;;15.18;8.48;;;;;;;11.11;56.43;100320.26;1702239;84;21206;-79
2022/11/02 06:46:17;;;;;;;19.00;9.10;;;;;;;11.20;56.66;100319.70;1713576;82;21193;-78
2022/11/02 06:49:22;;;;;;;20.35;8.18;;;;;;;11.13;57.58;100327.77;1718221;81;22265;-79
2022/11/02 06:52:22;;;;;;;17.27;8.70;;;;;;;11.28;57.86;100329.20;1693246;84;21298;-78
2022/11/02 06:55:15;;;;;;;20.52;8.75;;;;;;;11.49;57.71;100325.31;1702888;83;21225;-78
2022/11/02 06:58:02;;;;;;;23.55;9.08;;;;;;;11.70;57.34;100326.01;1708974;82;21166;-77
2022/11/02 07:00:54;;;;;;;20.05;9.33;;;;;;;11.80;57.56;100318.91;1697045;83;21208;-78
2022/11/02 07:04:00;;;;;;;16.90;9.00;;;;;;;12.03;57.53;100314.27;1700698;82;22298;-77
2022/11/02 07:07:00;;;;;;;16.55;8.23;;;;;;;12.36;57.08;100318.06;1706624;82;21365;-77
2022/11/02 07:10:09;;;;;;;20.08;10.08;;;;;;;12.47;57.07;100319.52;1708811;82;21205;-78
2022/11/02 07:13:14;;;;;;;19.32;9.95;;;;;;;12.70;56.70;100315.27;1705166;82;21523;-78
2022/11/02 07:16:21;;;;;;;24.00;9.40;;;;;;;12.72;56.97;100304.98;1695872;83;21196;-78
2022/11/02 07:19:28;;;;;;;14.28;8.00;;;;;;;12.96;56.66;100307.41;1690331;83;21796;-78
2022/11/02 07:22:34;;;;;;;24.02;9.40;;;;;;;13.21;55.90;100302.94;1689403;83;22353;-78
2022/11/02 07:25:40;;;;;;;23.18;10.08;;;;;;;13.34;54.95;100294.04;1698237;82;21276;-78
2022/11/02 07:28:46;;;;;;;18.65;9.58;;;;;;;13.46;54.63;100302.11;1699592;84;21538;-78
2022/11/02 07:31:54;;;;;;;21.40;10.10;;;;;;;13.41;54.51;100295.83;1701504;83;21259;-78
2022/11/02 07:35:03;;;;;;;19.35;9.93;;;;;;;13.63;53.90;100295.28;1703514;82;21367;-79
2022/11/02 07:38:04;;;;;;;;;;;;;;;13.68;53.87;100296.07;1708381;82;21205;-78
2022/11/02 07:41:09;;;;;;;17.20;9.08;;;;;;;13.85;53.28;100288.41;1698692;82;20236;-78
2022/11/02 07:44:14;;;;;;;22.85;11.28;;;;;;;14.05;52.64;100288.89;1704853;82;21220;-78
2022/11/02 07:47:20;;;;;;;19.67;9.83;;;;;;;14.10;52.58;100281.42;1697667;83;21256;-78
2022/11/02 07:50:28;;;;;;;18.98;9.43;;;;;;;14.48;52.27;100269.53;1696431;82;22366;-77
2022/11/02 07:53:34;;;;;;;23.98;9.95;;;;;;;14.66;51.85;100261.28;1697729;82;21220;-78
2022/11/02 07:56:41;;;;;;;21.27;9.88;;;;;;;14.81;51.88;100260.59;1694297;82;21236;-78
2022/11/02 07:59:46;;;;;;;22.35;9.45;;;;;;;14.98;51.63;100255.06;1695621;83;21212;-78
2022/11/02 08:02:56;;;;;;;25.40;9.68;;;;;;;15.33;51.01;100257.70;1701623;82;21223;-78
2022/11/02 08:06:02;;;;;;;18.62;9.48;;;;;;;15.58;50.22;100251.92;1699674;83;21237;-78
2022/11/02 08:09:09;;;;;;;20.50;10.05;;;;;;;15.61;50.08;100247.88;1715553;81;21772;-79
2022/11/02 08:12:14;;;;;;;19.55;8.78;;;;;;;15.74;50.07;100248.47;1720936;81;22252;-78
2022/11/02 08:15:19;;;;;;;17.40;8.48;;;;;;;15.88;49.73;100249.31;1714648;81;21765;-79
2022/11/02 08:18:27;;;;;;;24.70;9.83;;;;;;;16.00;49.47;100244.33;1712956;82;21169;-79
2022/11/02 08:21:32;;;;;;;15.48;7.40;;;;;;;16.13;49.24;100243.45;1713545;82;21232;-78
2022/11/02 08:24:38;;;;;;;16.00;8.10;;;;;;;16.30;49.22;100236.96;1715155;81;21213;-78
2022/11/02 08:27:43;;;;;;;13.32;7.08;;;;;;;16.37;49.13;100226.73;1712419;81;21661;-77
2022/11/02 08:30:49;;;;;;;19.90;8.00;;;;;;;16.64;48.72;100227.52;1707938;82;21302;-78
2022/11/02 08:33:55;;;;;;;24.45;7.53;;;;;;;16.86;48.07;100231.70;1711891;82;22220;-78
2022/11/02 08:37:02;;;;;;;14.38;7.15;;;;;;;16.67;48.43;100220.19;1711346;81;21192;-77
2022/11/02 08:40:08;;;;;;;21.02;7.62;;;;;;;16.78;48.61;100223.66;1710587;83;21209;-77
2022/11/02 08:43:15;;;;;;;13.62;6.70;;;;;;;16.83;48.68;100220.24;1713316;81;22227;-76
2022/11/02 08:46:23;;;;;;;12.90;7.33;;;;;;;16.89;48.76;100213.86;1711285;82;21200;-77
2022/11/02 08:49:29;;;;;;;18.52;7.05;;;;;;;17.06;48.54;100208.66;1712938;82;21230;-77
2022/11/02 08:52:35;;;;;;;15.75;7.00;;;;;;;17.56;47.80;100208.22;1717003;82;21194;-77
2022/11/02 08:55:41;;;;;;;14.75;6.60;;;;;;;17.70;47.39;100195.67;1713946;83;21303;-77
2022/11/02 08:58:51;;;;;;;13.68;6.30;;;;;;;17.90;47.26;100193.59;1705677;83;21240;-78
2022/11/02 09:01:57;;;;;;;15.00;6.28;;;;;;;17.97;47.12;100188.83;1704018;82;21767;-79
2022/11/02 09:05:04;;;;;;;14.98;6.47;;;;;;;17.65;47.48;100182.52;1703059;82;22537;-78
2022/11/02 09:08:15;;;;;;;12.07;5.40;;;;;;;17.86;47.25;100177.14;1702395;82;21189;-78
2022/11/02 09:11:23;;;;;;;17.37;6.30;;;;;;;17.95;47.09;100166.09;1701510;82;21475;-78
2022/11/02 09:14:29;;;;;;;16.12;6.20;;;;;;;17.98;46.93;100162.87;1700388;82;21798;-79
2022/11/02 09:17:36;;;;;;;14.07;5.83;;;;;;;17.79;47.49;100166.15;1704488;82;21302;-78
2022/11/02 09:20:42;;;;;;;11.43;5.72;;;;;;;17.85;47.62;100159.70;1698526;82;21792;-78
2022/11/02 09:23:48;;;;;;;11.68;5.60;;;;;;;17.92;47.70;100147.70;1701908;82;21399;-78
2022/11/02 09:26:55;;;;;;;12.90;5.35;;;;;;;17.80;47.79;100153.16;1702863;82;21181;-80
2022/11/02 09:30:02;;;;;;;9.73;4.60;;;;;;;18.22;47.62;100140.91;1700919;82;21193;-78
2022/11/02 09:33:12;;;;;;;9.40;4.75;;;;;;;18.55;46.64;100134.42;1702317;82;21217;-78
2022/11/02 09:36:18;;;;;;;9.05;4.75;;;;;;;18.65;46.20;100133.88;1706932;82;21261;-77
2022/11/02 09:39:25;;;;;;;13.32;4.92;;;;;;;18.94;45.76;100133.59;1704243;82;21787;-78
2022/11/02 09:43:01;;;;;;;11.08;4.12;;;;;;;19.07;45.25;100123.70;1700875;82;21231;-77
2022/11/02 09:46:25;;;;;;;8.90;4.60;;;;;;;19.01;45.13;100119.66;1704266;82;21213;-78
2022/11/02 09:49:33;;;;;;;9.73;4.65;;;;;;;18.90;45.28;100118.52;1706484;82;21206;-78
2022/11/02 09:52:43;;;;;;;10.00;4.28;;;;;;;19.17;44.49;100116.20;1688554;82;21736;-79
2022/11/02 09:55:53;;;;;;;12.95;4.80;;;;;;;19.10;44.46;100102.45;1708113;83;21200;-79
2022/11/02 09:59:08;;;;;;;8.75;4.05;;;;;;;19.15;44.32;100101.74;1699374;83;21350;-78
2022/11/02 10:02:44;;;;;;;10.80;4.30;;;;;;;19.02;44.69;100095.02;1707683;82;21977;-79
2022/11/02 10:05:59;;;;;;;15.32;4.35;;;;;;;18.59;45.20;100083.03;1699575;82;21410;-79
2022/11/02 10:09:26;;;;;;;7.80;4.17;;;;;;;18.94;45.08;100082.88;1700561;84;21228;-78
2022/11/02 10:13:12;;;;;;;12.30;3.95;;;;;;;18.78;45.71;100073.31;1697854;83;21243;-80
2022/11/02 10:16:27;;;;;;;15.85;4.58;;;;;;;18.90;45.65;100074.18;1695810;83;21213;-77
2022/11/02 10:19:33;;;;;;;10.60;4.40;;;;;;;19.29;45.30;100072.72;1699482;82;21610;-77
2022/11/02 10:22:43;;;;;;;13.03;4.22;;;;;;;19.33;45.22;100071.67;1700380;83;21217;-77
2022/11/02 10:25:50;;;;;;;9.33;4.35;;;;;;;19.15;45.60;100063.77;1694575;83;21235;-77
2022/11/02 10:28:57;;;;;;;7.90;4.15;;;;;;;19.01;45.77;100058.69;1699546;83;21243;-77
2022/11/02 10:31:55;;;;;;;7.95;4.33;;;;;;;19.14;45.44;100050.97;1696018;82;21273;-77
2022/11/02 10:34:52;;;;;;;22.02;4.58;;;;;;;19.43;44.86;100040.02;1701662;82;21193;-77
2022/11/02 10:38:01;;;;;;;8.63;4.17;;;;;;;19.55;44.57;100036.72;1704952;82;22370;-78
2022/11/02 10:41:39;;;;;;;12.60;5.40;;;;;;;19.22;45.19;100036.47;1715778;82;21213;-77
2022/11/02 10:45:15;;;;;;;8.85;4.33;;;;;;;19.79;44.67;100028.41;1701067;83;21188;-78
2022/11/02 10:48:45;;;;;;;9.88;4.17;;;;;;;19.35;45.17;100027.92;1703223;83;21272;-78
2022/11/02 10:51:51;;;;;;;7.42;3.37;;;;;;;19.54;44.73;100023.94;1699342;83;21827;-78
2022/11/02 10:54:57;;;;;;;7.25;3.50;;;;;;;19.75;44.33;100011.94;1712955;82;21231;-78
2022/11/02 10:57:58;;;;;;;6.55;3.62;;;;;;;19.64;44.50;100008.94;1713674;82;21175;-78
2022/11/02 11:00:54;;;;;;;7.00;3.58;;;;;;;19.79;44.69;100013.14;1706491;82;21851;-76
2022/11/02 11:04:09;;;;;;;7.17;3.33;;;;;;;19.35;45.12;100002.97;1725170;82;21181;-77
2022/11/02 11:07:28;;;;;;;15.48;4.85;;;;;;;19.31;45.80;100002.59;1710071;82;21193;-77
2022/11/02 11:10:44;;;;;;;7.42;3.95;;;;;;;19.39;45.82;99999.47;1729058;81;21186;-78
2022/11/02 11:13:51;;;;;;;12.47;4.17;;;;;;;19.43;45.67;99994.80;1727568;82;21237;-77
2022/11/02 11:17:01;;;;;;;13.60;4.17;;;;;;;19.70;45.28;99989.62;1725767;82;22011;-77
2022/11/02 11:20:09;;;;;;;10.25;4.00;;;;;;;19.69;45.35;99975.47;1712273;82;21173;-76
2022/11/02 11:23:31;;;;;;;9.45;3.65;;;;;;;19.79;45.48;99975.67;1698929;84;21203;-77
2022/11/02 11:26:38;;;;;;;9.30;4.47;;;;;;;19.66;46.03;99972.07;1701918;83;21838;-77
2022/11/02 11:29:50;;;;;;;16.82;4.28;;;;;;;19.70;45.92;99964.11;1702201;84;22221;-78
2022/11/02 11:32:56;;;;;;;8.38;4.05;;;;;;;19.63;46.19;99961.48;1709104;82;21244;-78
2022/11/02 11:36:01;;;;;;;7.28;3.70;;;;;;;19.68;45.98;99957.14;1695345;84;21235;-78
2022/11/02 11:39:11;;;;;;;5.28;3.47;;;;;;;19.56;46.28;99956.56;1719791;82;21291;-78
2022/11/02 11:42:26;;;;;;;8.63;3.77;;;;;;;19.18;46.93;99954.86;1722079;81;21193;-78
2022/11/02 11:46:00;;;;;;;10.10;3.37;;;;;;;19.53;46.64;99952.91;1703885;83;21715;-78
2022/11/02 11:49:06;;;;;;;6.72;3.15;;;;;;;19.48;46.78;99941.70;1706236;81;21235;-78
2022/11/02 11:52:11;;;;;;;8.58;3.15;;;;;;;19.47;47.01;99943.31;1714866;81;21764;-79
2022/11/02 11:55:32;;;;;;;6.20;3.10;;;;;;;19.39;47.33;99945.39;1724074;81;21327;-78
2022/11/02 11:58:42;;;;;;;10.58;3.20;;;;;;;19.33;47.64;99944.11;1711939;83;21181;-78
2022/11/02 12:01:48;;;;;;;7.87;3.40;;;;;;;19.51;47.18;99934.27;1715799;82;21516;-78
2022/11/02 12:04:55;;;;;;;8.55;3.60;;;;;;;18.72;48.67;99932.41;1724695;83;21798;-78
2022/11/02 12:08:17;;;;;;;7.85;3.55;;;;;;;18.86;48.70;99936.64;1720214;81;21205;-77
2022/11/02 12:11:35;;;;;;;7.70;3.60;;;;;;;19.23;47.94;99929.48;1670882;84;21915;-78
2022/11/02 12:14:57;;;;;;;8.73;3.60;;;;;;;19.27;48.12;99931.23;1667180;84;21204;-77
2022/11/02 12:18:21;;;;;;;7.37;3.65;;;;;;;19.50;47.58;99924.81;1688569;83;21361;-78
2022/11/02 12:21:34;;;;;;;5.95;3.22;;;;;;;19.73;47.32;99923.95;1686139;83;21189;-78
2022/11/02 12:24:59;;;;;;;7.85;3.35;;;;;;;19.83;47.25;99924.15;1692351;84;21209;-78
2022/11/02 12:28:28;;;;;;;10.40;5.08;;;;;;;19.17;48.34;99919.91;1666162;83;22382;-78
2022/11/02 12:31:44;;;;;;;13.83;5.42;;;;;;;18.87;48.49;99917.56;1662281;84;21225;-79
2022/11/02 12:35:26;;;;;;;11.33;4.27;;;;;;;19.43;47.31;99917.16;1633354;84;21220;-78
2022/11/02 12:39:01;;;;;;;7.55;4.35;;;;;;;19.21;47.80;99908.09;1627912;86;21516;-78
2022/11/02 12:42:35;;;;;;;8.70;4.15;;;;;;;18.90;48.39;99906.53;1685163;83;21192;-79
2022/11/02 12:46:19;;;;;;;15.93;4.42;;;;;;;18.76;48.62;99903.69;1672063;83;21185;-78
2022/11/02 12:49:44;;;;;;;9.18;4.92;;;;;;;18.46;49.19;99910.13;1682636;83;21178;-78
2022/11/02 12:53:07;;;;;;;9.00;4.10;;;;;;;18.36;49.60;99905.17;1686752;83;21269;-78
2022/11/02 12:56:17;;;;;;;8.30;4.25;;;;;;;18.07;50.36;99904.67;1688843;83;21169;-80
2022/11/02 12:59:37;;;;;;;8.90;5.28;;;;;;;17.91;50.72;99903.39;1698930;83;21203;-78
2022/11/02 13:03:04;;;;;;;11.30;4.53;;;;;;;17.88;50.66;99890.05;1693118;83;22233;-78
2022/11/02 13:06:14;;;;;;;12.58;5.03;;;;;;;18.09;50.22;99888.12;1676719;84;21251;-78
2022/11/02 13:09:30;;;;;;;12.07;4.25;;;;;;;18.21;49.98;99890.94;1715387;83;21284;-79
2022/11/02 13:12:38;;;;;;;10.23;4.78;;;;;;;18.03;50.39;99883.53;1709236;84;21212;-79
2022/11/02 13:15:45;;;;;;;10.85;4.58;;;;;;;18.26;50.15;99886.08;1714676;83;21300;-79
2022/11/02 13:18:59;;;;;;;7.50;4.50;;;;;;;18.09;50.45;99882.58;1697759;84;21180;-79
2022/11/02 13:21:58;;;;;;;10.30;4.37;;;;;;;18.08;50.84;99871.76;1685223;85;21734;-80
2022/11/02 13:24:53;;;;;;;10.05;5.17;;;;;;;18.11;51.09;99859.69;1685603;85;21218;-79
2022/11/02 13:27:48;;;;;;;10.32;4.92;;;;;;;18.01;51.49;99853.85;1671182;85;21725;-79
2022/11/02 13:30:39;;;;;;;;;;;;;;;17.79;52.21;99848.56;1690870;84;21205;-80
2022/11/02 13:33:28;;;;;;;15.72;5.72;;;;;;;17.92;51.84;99840.59;1686590;85;20284;-79
2022/11/02 13:36:22;;;;;;;18.85;8.18;;;;;;;17.56;52.19;99843.20;1687227;85;21723;-79
2022/11/02 13:39:47;;;;;;;12.85;7.08;;;;;;;17.52;52.49;99841.14;1687593;85;21196;-79
2022/11/02 13:43:14;;;;;;;15.48;8.50;;;;;;;17.40;52.22;99832.77;1687543;85;21213;-79
2022/11/02 13:46:30;;;;;;;16.40;9.00;;;;;;;17.48;51.86;99835.77;1687566;85;21185;-79
2022/11/02 13:49:49;;;;;;;18.20;7.80;;;;;;;17.43;51.76;99832.31;1695654;84;21206;-79
2022/11/02 13:53:03;;;;;;;;;;;;;;;16.87;53.16;99830.64;1710316;84;21790;-78
2022/11/02 13:56:16;;;;;;;25.12;9.70;;;;;;;16.93;53.39;99825.57;1707492;84;20638;-79
2022/11/02 13:59:40;;;;;;;29.18;13.25;;;;;;;16.47;55.29;99825.50;1707731;84;21173;-79
2022/11/02 14:02:48;;;;;;;37.17;17.42;;;;;;;16.21;55.75;99818.82;1664913;84;21224;-79
2022/11/02 14:06:04;;;;;;;35.95;16.17;;;;;;;16.25;55.75;99815.39;1699588;84;22432;-79
2022/11/02 14:09:11;;;;;;;16.07;9.90;;;;;;;17.11;53.53;99810.92;1698922;84;21256;-79
2022/11/02 14:12:30;;;;;;;18.42;8.05;;;;;;;16.35;55.60;99804.68;1698468;84;21201;-79
2022/11/02 14:15:43;;;;;;;14.25;7.67;;;;;;;16.09;56.74;99794.73;1698194;84;21276;-77
2022/11/02 14:18:50;;;;;;;15.35;8.05;;;;;;;16.68;55.38;99789.70;1699626;84;21213;-78
2022/11/02 14:22:11;;;;;;;20.57;8.90;;;;;;;17.06;54.03;99792.27;1698315;84;21181;-78
2022/11/02 14:25:22;;;;;;;17.02;9.18;;;;;;;16.89;54.24;99793.11;1698023;84;21559;-78
2022/11/02 14:28:41;;;;;;;18.02;8.40;;;;;;;16.82;54.53;99777.47;1697941;84;21222;-77
2022/11/02 14:31:48;;;;;;;21.55;8.33;;;;;;;16.25;55.89;99781.44;1698475;84;21250;-77
2022/11/02 14:35:14;;;;;;;17.62;8.33;;;;;;;16.52;55.63;99782.03;1700871;84;21167;-78
2022/11/02 14:38:36;;;;;;;18.23;8.53;;;;;;;16.94;54.45;99781.70;1701284;84;21178;-78
2022/11/02 14:41:55;;;;;;;16.35;8.60;;;;;;;16.81;54.57;99779.09;1699570;84;21208;-77
2022/11/02 14:45:27;;;;;;;12.75;7.78;;;;;;;16.91;54.55;99769.73;1699907;84;21781;-78
2022/11/02 14:48:32;;;;;;;13.10;7.62;;;;;;;16.85;54.69;99772.03;1698487;84;21267;-77